Debbie — 3FSN4 — position and weather

sailwx.info

Track history (hours):
 
Tides and Currents Weather Stations Pressure Air Temp Water Temp Dewpoint Dewpoint Depression Visibility Wind Speed Wind Dir Waves Ship Positions

Debbie

Last reported at 2018-Feb-21 22:11 UTC. Time now 2018-Feb-24 22:14 UTC.
Position N 32°51' E 035°01'.

Length 126 m; draft 8.6 m.

Type: Cargo ship. MMSI: 373623000.

Date/timePositionNaut miles runAvg speedWind from/ knotsBaromVisibWave heightAir tempDewpointWater temp
2018-Feb-21 22:11N 32°51' E 035°01'1 3.4
2018-Feb-21 21:58N 32°51' E 035°00'1 0.4
2018-Feb-21 20:20N 32°51' E 034°59'0 0.0
2018-Feb-21 09:38N 32°51' E 034°59'0 0.0
2018-Feb-21 09:26N 32°51' E 034°59'0 0.1
2018-Feb-21 07:47N 32°51' E 034°59'0 0.0
2018-Feb-21 05:51N 32°51' E 034°59'0 0.0
2018-Feb-21 05:26N 32°51' E 034°59'0 0.0
2018-Feb-20 16:44N 32°51' E 034°59'0 0.0
2018-Feb-20 15:02N 32°51' E 034°59'0 0.0
2018-Feb-20 10:08N 32°51' E 034°59'0 1.0
2018-Feb-20 09:59N 32°51' E 034°59'1 2.4
2018-Feb-20 09:29N 32°52' E 034°58'3 5.7
2018-Feb-20 09:00N 32°52' E 034°55'4 8.3
2018-Feb-20 08:30N 32°53' E 034°50'4 8.5
2018-Feb-20 08:00N 32°54' E 034°45'4 8.7
2018-Feb-20 07:30N 32°55' E 034°40'4 8.6
2018-Feb-20 07:00N 32°56' E 034°35'  
Track history (hours):
 
Tides and Currents Weather Stations Pressure Air Temp Water Temp Dewpoint Dewpoint Depression Visibility Wind Speed Wind Dir Waves Ship Positions

Debbie

Last reported at 2018-Feb-21 22:11 UTC. Time now 2018-Feb-24 22:14 UTC.
Position N 32°51' E 035°01'.

Length 126 m; draft 8.6 m.

Type: Cargo ship. MMSI: 373623000.

Date/timePositionNaut miles runAvg speedWind from/ knotsBaromVisibWave heightAir tempDewpointWater temp
2018-Feb-21 22:11N 32°51' E 035°01'1 3.4
2018-Feb-21 21:58N 32°51' E 035°00'1 0.4
2018-Feb-21 20:20N 32°51' E 034°59'0 0.0
2018-Feb-21 09:38N 32°51' E 034°59'0 0.0
2018-Feb-21 09:26N 32°51' E 034°59'0 0.1
2018-Feb-21 07:47N 32°51' E 034°59'0 0.0
2018-Feb-21 05:51N 32°51' E 034°59'0 0.0
2018-Feb-21 05:26N 32°51' E 034°59'0 0.0
2018-Feb-20 16:44N 32°51' E 034°59'0 0.0
2018-Feb-20 15:02N 32°51' E 034°59'0 0.0
2018-Feb-20 10:08N 32°51' E 034°59'0 1.0
2018-Feb-20 09:59N 32°51' E 034°59'1 2.4
2018-Feb-20 09:29N 32°52' E 034°58'3 5.7
2018-Feb-20 09:00N 32°52' E 034°55'4 8.3
2018-Feb-20 08:30N 32°53' E 034°50'4 8.5
2018-Feb-20 08:00N 32°54' E 034°45'4 8.7
2018-Feb-20 07:30N 32°55' E 034°40'4 8.6
2018-Feb-20 07:00N 32°56' E 034°35'  

Dump ship's entire track history